sensor_id;sensor_type;location;lat;lon;timestamp;pressure;altitude;pressure_sealevel;temperature;humidity
6038;BME280;3047;42.600;23.470;2022-12-18T00:02:13;93735.78;;;8.85;100.00
6038;BME280;3047;42.600;23.470;2022-12-18T00:04:40;93737.63;;;8.72;100.00
6038;BME280;3047;42.600;23.470;2022-12-18T00:07:08;93721.00;;;8.54;100.00
6038;BME280;3047;42.600;23.470;2022-12-18T00:09:34;93747.81;;;8.60;100.00
6038;BME280;3047;42.600;23.470;2022-12-18T00:12:01;93743.66;;;8.59;100.00
6038;BME280;3047;42.600;23.470;2022-12-18T00:14:28;93758.72;;;8.60;100.00
6038;BME280;3047;42.600;23.470;2022-12-18T00:16:55;93761.28;;;8.56;100.00
6038;BME280;3047;42.600;23.470;2022-12-18T00:19:23;93769.75;;;8.49;100.00
6038;BME280;3047;42.600;23.470;2022-12-18T00:21:50;93772.31;;;8.44;100.00
6038;BME280;3047;42.600;23.470;2022-12-18T00:24:18;93766.56;;;8.28;100.00
6038;BME280;3047;42.600;23.470;2022-12-18T00:26:45;93772.44;;;8.27;100.00
6038;BME280;3047;42.600;23.470;2022-12-18T00:29:13;93776.66;;;8.22;100.00
6038;BME280;3047;42.600;23.470;2022-12-18T00:31:40;93764.94;;;8.21;100.00
6038;BME280;3047;42.600;23.470;2022-12-18T00:34:09;93780.03;;;8.21;100.00
6038;BME280;3047;42.600;23.470;2022-12-18T00:36:37;93779.97;;;8.29;100.00
6038;BME280;3047;42.600;23.470;2022-12-18T00:39:04;93709.88;;;7.84;100.00
6038;BME280;3047;42.600;23.470;2022-12-18T00:41:32;93774.09;;;8.28;100.00
6038;BME280;3047;42.600;23.470;2022-12-18T00:44:17;93778.28;;;8.31;100.00
6038;BME280;3047;42.600;23.470;2022-12-18T00:46:46;93770.78;;;8.25;100.00
6038;BME280;3047;42.600;23.470;2022-12-18T00:49:14;93776.59;;;8.30;100.00
6038;BME280;3047;42.600;23.470;2022-12-18T00:51:41;93773.31;;;8.22;100.00
6038;BME280;3047;42.600;23.470;2022-12-18T00:54:07;93794.19;;;8.33;100.00
6038;BME280;3047;42.600;23.470;2022-12-18T00:56:36;93796.75;;;8.31;100.00
6038;BME280;3047;42.600;23.470;2022-12-18T00:59:03;93779.19;;;8.21;100.00
6038;BME280;3047;42.600;23.470;2022-12-18T01:01:31;93802.63;;;8.29;100.00
6038;BME280;3047;42.600;23.470;2022-12-18T01:03:58;93803.63;;;8.11;100.00
6038;BME280;3047;42.600;23.470;2022-12-18T01:06:25;93799.38;;;8.16;100.00
6038;BME280;3047;42.600;23.470;2022-12-18T01:08:52;93798.63;;;8.06;100.00
6038;BME280;3047;42.600;23.470;2022-12-18T01:11:20;93809.56;;;7.99;100.00
6038;BME280;3047;42.600;23.470;2022-12-18T01:13:48;93806.28;;;7.88;100.00
6038;BME280;3047;42.600;23.470;2022-12-18T01:16:16;93808.00;;;7.81;100.00
6038;BME280;3047;42.600;23.470;2022-12-18T01:18:44;93809.69;;;7.82;100.00
6038;BME280;3047;42.600;23.470;2022-12-18T01:21:12;93767.91;;;7.57;100.00
6038;BME280;3047;42.600;23.470;2022-12-18T01:23:39;93810.53;;;7.77;100.00
6038;BME280;3047;42.600;23.470;2022-12-18T01:26:07;93814.81;;;7.64;100.00
6038;BME280;3047;42.600;23.470;2022-12-18T01:28:34;93796.47;;;7.47;100.00
6038;BME280;3047;42.600;23.470;2022-12-18T01:31:15;93814.84;;;7.53;100.00
6038;BME280;3047;42.600;23.470;2022-12-18T01:33:42;93762.25;;;7.23;100.00
6038;BME280;3047;42.600;23.470;2022-12-18T01:36:14;93816.59;;;7.40;100.00
6038;BME280;3047;42.600;23.470;2022-12-18T01:38:41;93821.63;;;7.43;100.00
6038;BME280;3047;42.600;23.470;2022-12-18T01:41:08;93824.13;;;7.50;100.00
6038;BME280;3047;42.600;23.470;2022-12-18T01:43:44;93841.72;;;7.50;100.00
6038;BME280;3047;42.600;23.470;2022-12-18T01:46:13;93812.47;;;7.30;100.00
6038;BME280;3047;42.600;23.470;2022-12-18T01:48:42;93836.75;;;7.37;100.00
6038;BME280;3047;42.600;23.470;2022-12-18T01:51:10;93843.47;;;7.28;100.00
6038;BME280;3047;42.600;23.470;2022-12-18T01:53:39;93836.75;;;7.28;100.00
6038;BME280;3047;42.600;23.470;2022-12-18T01:56:07;93811.75;;;7.02;100.00
6038;BME280;3047;42.600;23.470;2022-12-18T01:58:39;93817.59;;;6.97;100.00
6038;BME280;3047;42.600;23.470;2022-12-18T02:01:08;93842.69;;;7.07;100.00
6038;BME280;3047;42.600;23.470;2022-12-18T02:03:36;93850.25;;;7.07;100.00
6038;BME280;3047;42.600;23.470;2022-12-18T02:06:09;93849.41;;;6.99;100.00
6038;BME280;3047;42.600;23.470;2022-12-18T02:08:47;93841.09;;;6.85;100.00
6038;BME280;3047;42.600;23.470;2022-12-18T02:11:18;93846.09;;;6.91;100.00
6038;BME280;3047;42.600;23.470;2022-12-18T02:13:53;93852.78;;;6.92;100.00
6038;BME280;3047;42.600;23.470;2022-12-18T02:16:30;93852.81;;;6.86;100.00
6038;BME280;3047;42.600;23.470;2022-12-18T02:19:04;93867.88;;;6.72;100.00
6038;BME280;3047;42.600;23.470;2022-12-18T02:21:43;93850.34;;;6.66;100.00
6038;BME280;3047;42.600;23.470;2022-12-18T02:24:20;93859.53;;;6.75;100.00
6038;BME280;3047;42.600;23.470;2022-12-18T02:26:55;93852.81;;;6.75;100.00
6038;BME280;3047;42.600;23.470;2022-12-18T02:29:25;93833.59;;;6.59;100.00
6038;BME280;3047;42.600;23.470;2022-12-18T02:31:56;93862.84;;;6.86;100.00
6038;BME280;3047;42.600;23.470;2022-12-18T02:34:26;93854.50;;;6.64;100.00
6038;BME280;3047;42.600;23.470;2022-12-18T02:36:57;93867.06;;;6.64;100.00
6038;BME280;3047;42.600;23.470;2022-12-18T02:39:26;93866.22;;;6.68;100.00
6038;BME280;3047;42.600;23.470;2022-12-18T02:41:56;93873.78;;;6.65;100.00
6038;BME280;3047;42.600;23.470;2022-12-18T02:44:24;93872.91;;;6.75;100.00
6038;BME280;3047;42.600;23.470;2022-12-18T02:46:52;93858.69;;;6.68;100.00
6038;BME280;3047;42.600;23.470;2022-12-18T02:49:31;93875.41;;;6.86;100.00
6038;BME280;3047;42.600;23.470;2022-12-18T02:52:07;93857.88;;;6.61;100.00
6038;BME280;3047;42.600;23.470;2022-12-18T02:54:42;93864.56;;;6.68;100.00
6038;BME280;3047;42.600;23.470;2022-12-18T02:57:18;93875.41;;;6.67;100.00
6038;BME280;3047;42.600;23.470;2022-12-18T02:59:54;93877.94;;;6.69;100.00
6038;BME280;3047;42.600;23.470;2022-12-18T03:02:26;93882.97;;;6.71;100.00
6038;BME280;3047;42.600;23.470;2022-12-18T03:05:02;93885.50;;;6.64;100.00
6038;BME280;3047;42.600;23.470;2022-12-18T03:07:36;93853.69;;;6.51;100.00
6038;BME280;3047;42.600;23.470;2022-12-18T03:10:06;93892.19;;;6.68;100.00
6038;BME280;3047;42.600;23.470;2022-12-18T03:12:39;93894.69;;;6.65;100.00
6038;BME280;3047;42.600;23.470;2022-12-18T03:15:12;93893.00;;;6.61;100.00
6038;BME280;3047;42.600;23.470;2022-12-18T03:17:42;93898.88;;;6.65;100.00
6038;BME280;3047;42.600;23.470;2022-12-18T03:20:15;93898.03;;;6.61;100.00
6038;BME280;3047;42.600;23.470;2022-12-18T03:22:46;93893.84;;;6.54;100.00
6038;BME280;3047;42.600;23.470;2022-12-18T03:25:14;93896.34;;;6.56;100.00
6038;BME280;3047;42.600;23.470;2022-12-18T03:27:47;93898.88;;;6.53;100.00
6038;BME280;3047;42.600;23.470;2022-12-18T03:30:15;93901.38;;;6.43;100.00
6038;BME280;3047;42.600;23.470;2022-12-18T03:32:46;93837.81;;;5.96;100.00
6038;BME280;3047;42.600;23.470;2022-12-18T03:35:21;93918.13;;;6.44;100.00
6038;BME280;3047;42.600;23.470;2022-12-18T03:37:48;93919.75;;;6.39;100.00
6038;BME280;3047;42.600;23.470;2022-12-18T03:40:16;93925.63;;;6.38;100.00
6038;BME280;3047;42.600;23.470;2022-12-18T03:42:47;93896.31;;;6.10;100.00
6038;BME280;3047;42.600;23.470;2022-12-18T03:45:21;93916.41;;;6.14;100.00
6038;BME280;3047;42.600;23.470;2022-12-18T03:47:57;93934.78;;;6.00;100.00
6038;BME280;3047;42.600;23.470;2022-12-18T03:50:33;93907.94;;;5.80;100.00
6038;BME280;3047;42.600;23.470;2022-12-18T03:53:13;93937.28;;;6.00;100.00
6038;BME280;3047;42.600;23.470;2022-12-18T03:55:44;93918.00;;;5.89;100.00
6038;BME280;3047;42.600;23.470;2022-12-18T03:58:16;93929.75;;;5.92;100.00
6038;BME280;3047;42.600;23.470;2022-12-18T04:00:45;93937.28;;;5.97;100.00
6038;BME280;3047;42.600;23.470;2022-12-18T04:03:13;93920.47;;;5.91;100.00
6038;BME280;3047;42.600;23.470;2022-12-18T04:05:42;93943.13;;;5.97;100.00
6038;BME280;3047;42.600;23.470;2022-12-18T04:08:13;93944.72;;;5.87;100.00
6038;BME280;3047;42.600;23.470;2022-12-18T04:10:40;93942.16;;;5.75;100.00
6038;BME280;3047;42.600;23.470;2022-12-18T04:13:07;93938.88;;;5.84;100.00
6038;BME280;3047;42.600;23.470;2022-12-18T04:15:36;93944.72;;;5.87;100.00
6038;BME280;3047;42.600;23.470;2022-12-18T04:18:03;93940.50;;;5.68;100.00
6038;BME280;3047;42.600;23.470;2022-12-18T04:20:30;93952.19;;;5.72;100.00
6038;BME280;3047;42.600;23.470;2022-12-18T04:22:57;93955.47;;;5.57;100.00
6038;BME280;3047;42.600;23.470;2022-12-18T04:25:23;93964.69;;;5.64;100.00
6038;BME280;3047;42.600;23.470;2022-12-18T04:27:50;93952.19;;;5.67;100.00
6038;BME280;3047;42.600;23.470;2022-12-18T04:30:17;93963.06;;;5.74;100.00
6038;BME280;3047;42.600;23.470;2022-12-18T04:32:45;93963.91;;;5.72;100.00
6038;BME280;3047;42.600;23.470;2022-12-18T04:35:12;93968.09;;;5.76;100.00
6038;BME280;3047;42.600;23.470;2022-12-18T04:37:38;93963.03;;;5.71;100.00
6038;BME280;3047;42.600;23.470;2022-12-18T04:40:06;93967.25;;;5.74;100.00
6038;BME280;3047;42.600;23.470;2022-12-18T04:42:33;93975.56;;;5.65;100.00
6038;BME280;3047;42.600;23.470;2022-12-18T04:45:00;93978.03;;;5.59;100.00
6038;BME280;3047;42.600;23.470;2022-12-18T04:47:26;93981.38;;;5.61;100.00
6038;BME280;3047;42.600;23.470;2022-12-18T04:49:55;93988.94;;;5.68;100.00
6038;BME280;3047;42.600;23.470;2022-12-18T04:52:21;93987.22;;;5.63;100.00
6038;BME280;3047;42.600;23.470;2022-12-18T04:54:48;93983.94;;;5.68;100.00
6038;BME280;3047;42.600;23.470;2022-12-18T04:57:15;93995.56;;;5.59;100.00
6038;BME280;3047;42.600;23.470;2022-12-18T04:59:43;93998.91;;;5.56;100.00
6038;BME280;3047;42.600;23.470;2022-12-18T05:02:10;94004.75;;;5.52;100.00
6038;BME280;3047;42.600;23.470;2022-12-18T05:04:37;94010.59;;;5.53;100.00
6038;BME280;3047;42.600;23.470;2022-12-18T05:07:05;94011.44;;;5.58;100.00
6038;BME280;3047;42.600;23.470;2022-12-18T05:09:32;94005.56;;;5.51;100.00
6038;BME280;3047;42.600;23.470;2022-12-18T05:11:58;94005.47;;;5.31;100.00
6038;BME280;3047;42.600;23.470;2022-12-18T05:14:25;94015.53;;;5.39;100.00
6038;BME280;3047;42.600;23.470;2022-12-18T05:16:52;94016.34;;;5.42;100.00
6038;BME280;3047;42.600;23.470;2022-12-18T05:19:19;94037.22;;;5.38;100.00
6038;BME280;3047;42.600;23.470;2022-12-18T05:21:46;94030.47;;;5.28;100.00
6038;BME280;3047;42.600;23.470;2022-12-18T05:24:14;94027.91;;;5.19;100.00
6038;BME280;3047;42.600;23.470;2022-12-18T05:26:41;94042.94;;;5.19;100.00
6038;BME280;3047;42.600;23.470;2022-12-18T05:29:07;94057.94;;;5.17;100.00
6038;BME280;3047;42.600;23.470;2022-12-18T05:31:37;94056.28;;;5.18;100.00
6038;BME280;3047;42.600;23.470;2022-12-18T05:34:04;94067.94;;;5.13;100.00
6038;BME280;3047;42.600;23.470;2022-12-18T05:36:31;94050.34;;;5.05;100.00
6038;BME280;3047;42.600;23.470;2022-12-18T05:38:58;94067.91;;;5.08;100.00
6038;BME280;3047;42.600;23.470;2022-12-18T05:41:27;94031.00;;;4.87;100.00
6038;BME280;3047;42.600;23.470;2022-12-18T05:43:54;94041.09;;;4.95;100.00
6038;BME280;3047;42.600;23.470;2022-12-18T05:46:21;94064.59;;;5.14;100.00
6038;BME280;3047;42.600;23.470;2022-12-18T05:48:47;94086.47;;;5.35;100.00
6038;BME280;3047;42.600;23.470;2022-12-18T05:51:17;94092.34;;;5.41;100.00
6038;BME280;3047;42.600;23.470;2022-12-18T05:53:44;94075.63;;;5.36;100.00
6038;BME280;3047;42.600;23.470;2022-12-18T05:56:13;94057.16;;;5.23;100.00
6038;BME280;3047;42.600;23.470;2022-12-18T05:58:41;94097.44;;;5.49;100.00
6038;BME280;3047;42.600;23.470;2022-12-18T06:01:12;94085.69;;;5.46;100.00
6038;BME280;3047;42.600;23.470;2022-12-18T06:03:39;94094.88;;;5.41;100.00
6038;BME280;3047;42.600;23.470;2022-12-18T06:06:13;94093.19;;;5.42;100.00
6038;BME280;3047;42.600;23.470;2022-12-18T06:08:40;94087.41;;;5.51;100.00
6038;BME280;3047;42.600;23.470;2022-12-18T06:11:06;94093.34;;;5.63;100.00
6038;BME280;3047;42.600;23.470;2022-12-18T06:13:33;94068.16;;;5.45;100.00
6038;BME280;3047;42.600;23.470;2022-12-18T06:16:03;94116.69;;;5.58;100.00
6038;BME280;3047;42.600;23.470;2022-12-18T06:18:30;94119.88;;;5.35;100.00
6038;BME280;3047;42.600;23.470;2022-12-18T06:20:58;94115.75;;;5.39;100.00
6038;BME280;3047;42.600;23.470;2022-12-18T06:23:25;94120.72;;;5.37;100.00
6038;BME280;3047;42.600;23.470;2022-12-18T06:25:52;94123.19;;;5.34;100.00
6038;BME280;3047;42.600;23.470;2022-12-18T06:28:19;94101.25;;;5.04;100.00
6038;BME280;3047;42.600;23.470;2022-12-18T06:30:47;94094.59;;;5.08;100.00
6038;BME280;3047;42.600;23.470;2022-12-18T06:33:16;94135.75;;;5.37;100.00
6038;BME280;3047;42.600;23.470;2022-12-18T06:35:43;94127.22;;;5.18;100.00
6038;BME280;3047;42.600;23.470;2022-12-18T06:38:10;94131.44;;;5.21;100.00
6038;BME280;3047;42.600;23.470;2022-12-18T06:40:37;94093.75;;;5.03;100.00
6038;BME280;3047;42.600;23.470;2022-12-18T06:43:05;94135.66;;;5.25;100.00
6038;BME280;3047;42.600;23.470;2022-12-18T06:45:32;94133.94;;;5.21;100.00
6038;BME280;3047;42.600;23.470;2022-12-18T06:47:58;94139.69;;;5.08;100.00
6038;BME280;3047;42.600;23.470;2022-12-18T06:50:26;94139.69;;;5.09;100.00
6038;BME280;3047;42.600;23.470;2022-12-18T06:52:53;94140.47;;;5.04;100.00
6038;BME280;3047;42.600;23.470;2022-12-18T06:55:20;94144.69;;;5.08;100.00
6038;BME280;3047;42.600;23.470;2022-12-18T06:57:47;94143.94;;;5.18;100.00
6038;BME280;3047;42.600;23.470;2022-12-18T07:00:14;94144.75;;;5.17;100.00
6038;BME280;3047;42.600;23.470;2022-12-18T07:02:41;94143.84;;;5.10;100.00
6038;BME280;3047;42.600;23.470;2022-12-18T07:05:08;94156.50;;;5.21;100.00
6038;BME280;3047;42.600;23.470;2022-12-18T07:07:36;94125.53;;;5.14;100.00
6038;BME280;3047;42.600;23.470;2022-12-18T07:10:03;94143.13;;;5.19;100.00
6038;BME280;3047;42.600;23.470;2022-12-18T07:12:30;94165.75;;;5.28;100.00
6038;BME280;3047;42.600;23.470;2022-12-18T07:14:57;94164.00;;;5.21;100.00
6038;BME280;3047;42.600;23.470;2022-12-18T07:17:24;94169.88;;;5.26;100.00
6038;BME280;3047;42.600;23.470;2022-12-18T07:19:51;94167.38;;;5.26;100.00
6038;BME280;3047;42.600;23.470;2022-12-18T07:22:17;94170.81;;;5.36;100.00
6038;BME280;3047;42.600;23.470;2022-12-18T07:24:46;94169.09;;;5.30;100.00
6038;BME280;3047;42.600;23.470;2022-12-18T07:27:12;94180.13;;;5.49;100.00
6038;BME280;3047;42.600;23.470;2022-12-18T07:29:39;94173.47;;;5.54;100.00
6038;BME280;3047;42.600;23.470;2022-12-18T07:32:06;94170.19;;;5.60;100.00
6038;BME280;3047;42.600;23.470;2022-12-18T07:34:33;94177.75;;;5.64;100.00
6038;BME280;3047;42.600;23.470;2022-12-18T07:37:00;94113.06;;;5.20;100.00
6038;BME280;3047;42.600;23.470;2022-12-18T07:39:27;94186.06;;;5.60;100.00
6038;BME280;3047;42.600;23.470;2022-12-18T07:41:55;94192.75;;;5.63;100.00
6038;BME280;3047;42.600;23.470;2022-12-18T07:44:39;94199.41;;;5.56;100.00
6038;BME280;3047;42.600;23.470;2022-12-18T07:47:06;94128.94;;;5.19;100.00
6038;BME280;3047;42.600;23.470;2022-12-18T07:49:33;94196.84;;;5.53;100.00
6038;BME280;3047;42.600;23.470;2022-12-18T07:52:00;94196.06;;;5.57;100.00
6038;BME280;3047;42.600;23.470;2022-12-18T07:54:27;94201.09;;;5.62;100.00
6038;BME280;3047;42.600;23.470;2022-12-18T07:56:55;94172.63;;;5.52;100.00
6038;BME280;3047;42.600;23.470;2022-12-18T07:59:21;94204.41;;;5.56;100.00
6038;BME280;3047;42.600;23.470;2022-12-18T08:01:48;94211.06;;;5.51;100.00
6038;BME280;3047;42.600;23.470;2022-12-18T08:04:15;94213.56;;;5.53;100.00
6038;BME280;3047;42.600;23.470;2022-12-18T08:06:42;94227.00;;;5.59;100.00
6038;BME280;3047;42.600;23.470;2022-12-18T08:09:09;94225.06;;;5.31;100.00
6038;BME280;3047;42.600;23.470;2022-12-18T08:11:36;94227.69;;;5.44;100.00
6038;BME280;3047;42.600;23.470;2022-12-18T08:14:04;94215.09;;;5.37;100.00
6038;BME280;3047;42.600;23.470;2022-12-18T08:16:31;94237.78;;;5.52;100.00
6038;BME280;3047;42.600;23.470;2022-12-18T08:18:57;94237.88;;;5.63;100.00
6038;BME280;3047;42.600;23.470;2022-12-18T08:21:25;94239.50;;;5.58;100.00
6038;BME280;3047;42.600;23.470;2022-12-18T08:23:53;94252.06;;;5.59;100.00
6038;BME280;3047;42.600;23.470;2022-12-18T08:26:21;94247.75;;;5.46;100.00
6038;BME280;3047;42.600;23.470;2022-12-18T08:28:48;94236.03;;;5.45;100.00
6038;BME280;3047;42.600;23.470;2022-12-18T08:31:17;94255.25;;;5.46;100.00
6038;BME280;3047;42.600;23.470;2022-12-18T08:33:44;94253.53;;;5.39;100.00
6038;BME280;3047;42.600;23.470;2022-12-18T08:36:11;94255.13;;;5.32;100.00
6038;BME280;3047;42.600;23.470;2022-12-18T08:38:38;94261.94;;;5.44;100.00
6038;BME280;3047;42.600;23.470;2022-12-18T08:41:07;94249.41;;;5.44;100.00
6038;BME280;3047;42.600;23.470;2022-12-18T08:43:35;94252.72;;;5.40;100.00
6038;BME280;3047;42.600;23.470;2022-12-18T08:46:21;94251.06;;;5.46;100.00
6038;BME280;3047;42.600;23.470;2022-12-18T08:48:50;94251.75;;;5.30;100.00
6038;BME280;3047;42.600;23.470;2022-12-18T08:51:18;94251.84;;;5.36;100.00
6038;BME280;3047;42.600;23.470;2022-12-18T08:53:45;94223.22;;;5.16;100.00
6038;BME280;3047;42.600;23.470;2022-12-18T08:56:12;94255.25;;;5.44;100.00
6038;BME280;3047;42.600;23.470;2022-12-18T08:58:39;94250.19;;;5.40;100.00
6038;BME280;3047;42.600;23.470;2022-12-18T09:01:08;94240.09;;;5.34;100.00
6038;BME280;3047;42.600;23.470;2022-12-18T09:03:37;94248.53;;;5.39;100.00
6038;BME280;3047;42.600;23.470;2022-12-18T09:06:05;94246.91;;;5.45;100.00
6038;BME280;3047;42.600;23.470;2022-12-18T09:08:34;94259.53;;;5.58;100.00
6038;BME280;3047;42.600;23.470;2022-12-18T09:11:02;94244.41;;;5.44;100.00
6038;BME280;3047;42.600;23.470;2022-12-18T09:13:29;94253.63;;;5.50;100.00
6038;BME280;3047;42.600;23.470;2022-12-18T09:15:55;94250.31;;;5.52;100.00
6038;BME280;3047;42.600;23.470;2022-12-18T09:18:23;94246.91;;;5.45;100.00
6038;BME280;3047;42.600;23.470;2022-12-18T09:20:52;94256.72;;;5.24;100.00
6038;BME280;3047;42.600;23.470;2022-12-18T09:23:19;94252.66;;;5.35;100.00
6038;BME280;3047;42.600;23.470;2022-12-18T09:25:46;94225.75;;;5.17;100.00
6038;BME280;3047;42.600;23.470;2022-12-18T09:28:18;94233.28;;;5.19;100.00
6038;BME280;3047;42.600;23.470;2022-12-18T09:30:46;94251.75;;;5.27;100.00
6038;BME280;3047;42.600;23.470;2022-12-18T09:33:13;94250.16;;;5.38;100.00
6038;BME280;3047;42.600;23.470;2022-12-18T09:35:41;94253.66;;;5.51;100.00
6038;BME280;3047;42.600;23.470;2022-12-18T09:38:12;94257.84;;;5.52;100.00
6038;BME280;3047;42.600;23.470;2022-12-18T09:40:42;94241.13;;;5.51;100.00
6038;BME280;3047;42.600;23.470;2022-12-18T09:43:15;94264.72;;;5.72;100.00
6038;BME280;3047;42.600;23.470;2022-12-18T09:45:47;94247.06;;;5.62;100.00
6038;BME280;3047;42.600;23.470;2022-12-18T09:48:20;94262.97;;;5.66;100.00
6038;BME280;3047;42.600;23.470;2022-12-18T09:50:49;94265.41;;;5.58;100.00
6038;BME280;3047;42.600;23.470;2022-12-18T09:53:22;94263.72;;;5.59;100.00
6038;BME280;3047;42.600;23.470;2022-12-18T09:55:52;94254.50;;;5.52;100.00
6038;BME280;3047;42.600;23.470;2022-12-18T09:58:24;94259.47;;;5.50;100.00
6038;BME280;3047;42.600;23.470;2022-12-18T10:00:53;94259.50;;;5.53;100.00
6038;BME280;3047;42.600;23.470;2022-12-18T10:03:20;94255.38;;;5.55;100.00
6038;BME280;3047;42.600;23.470;2022-12-18T10:05:56;94229.41;;;5.47;100.00
6038;BME280;3047;42.600;23.470;2022-12-18T10:08:35;94245.31;;;5.54;100.00
6038;BME280;3047;42.600;23.470;2022-12-18T10:11:27;94265.44;;;5.61;100.00
6038;BME280;3047;42.600;23.470;2022-12-18T10:13:58;94257.91;;;5.61;100.00
6038;BME280;3047;42.600;23.470;2022-12-18T10:16:34;94255.38;;;5.57;100.00
6038;BME280;3047;42.600;23.470;2022-12-18T10:19:17;94256.28;;;5.66;100.00
6038;BME280;3047;42.600;23.470;2022-12-18T10:21:55;94257.16;;;5.70;100.00
6038;BME280;3047;42.600;23.470;2022-12-18T10:24:32;94258.78;;;5.63;100.00
6038;BME280;3047;42.600;23.470;2022-12-18T10:27:11;94269.53;;;5.53;100.00
6038;BME280;3047;42.600;23.470;2022-12-18T10:29:39;94261.19;;;5.53;100.00
6038;BME280;3047;42.600;23.470;2022-12-18T10:32:07;94261.97;;;5.49;100.00
6038;BME280;3047;42.600;23.470;2022-12-18T10:34:39;94260.34;;;5.52;100.00
6038;BME280;3047;42.600;23.470;2022-12-18T10:37:12;94254.47;;;5.50;100.00
6038;BME280;3047;42.600;23.470;2022-12-18T10:39:42;94249.47;;;5.53;100.00
6038;BME280;3047;42.600;23.470;2022-12-18T10:42:11;94250.28;;;5.51;100.00
6038;BME280;3047;42.600;23.470;2022-12-18T10:44:38;94244.34;;;5.42;100.00
6038;BME280;3047;42.600;23.470;2022-12-18T10:47:11;94249.44;;;5.49;100.00
6038;BME280;3047;42.600;23.470;2022-12-18T10:49:42;94242.84;;;5.58;100.00
6038;BME280;3047;42.600;23.470;2022-12-18T10:52:16;94224.22;;;5.33;100.00
6038;BME280;3047;42.600;23.470;2022-12-18T10:54:51;94251.13;;;5.50;100.00
6038;BME280;3047;42.600;23.470;2022-12-18T10:57:31;94256.06;;;5.42;99.30
6038;BME280;3047;42.600;23.470;2022-12-18T10:59:59;94257.63;;;5.34;100.00
6038;BME280;3047;42.600;23.470;2022-12-18T11:02:34;94255.13;;;5.32;100.00
6038;BME280;3047;42.600;23.470;2022-12-18T11:05:02;94188.81;;;4.95;100.00
6038;BME280;3047;42.600;23.470;2022-12-18T11:07:47;94250.13;;;5.32;100.00
6038;BME280;3047;42.600;23.470;2022-12-18T11:10:18;94250.97;;;5.33;100.00
6038;BME280;3047;42.600;23.470;2022-12-18T11:12:45;94240.78;;;5.16;100.00
6038;BME280;3047;42.600;23.470;2022-12-18T11:15:15;94250.16;;;5.35;100.00
6038;BME280;3047;42.600;23.470;2022-12-18T11:17:46;94252.66;;;5.37;100.00
6038;BME280;3047;42.600;23.470;2022-12-18T11:20:21;94233.34;;;5.25;100.00
6038;BME280;3047;42.600;23.470;2022-12-18T11:22:55;94251.81;;;5.35;100.00
6038;BME280;3047;42.600;23.470;2022-12-18T11:25:24;94256.84;;;5.38;100.00
6038;BME280;3047;42.600;23.470;2022-12-18T11:27:55;94251.03;;;5.40;100.00
6038;BME280;3047;42.600;23.470;2022-12-18T11:30:24;94259.34;;;5.36;100.00
6038;BME280;3047;42.600;23.470;2022-12-18T11:32:54;94255.22;;;5.40;100.00
6038;BME280;3047;42.600;23.470;2022-12-18T11:35:30;94199.81;;;5.11;100.00
6038;BME280;3047;42.600;23.470;2022-12-18T11:38:04;94251.84;;;5.36;100.00
6038;BME280;3047;42.600;23.470;2022-12-18T11:40:36;94262.72;;;5.40;100.00
6038;BME280;3047;42.600;23.470;2022-12-18T11:43:08;94259.44;;;5.45;100.00
6038;BME280;3047;42.600;23.470;2022-12-18T11:45:42;94245.06;;;5.29;99.57
6038;BME280;3047;42.600;23.470;2022-12-18T11:48:17;94260.22;;;5.40;99.70
6038;BME280;3047;42.600;23.470;2022-12-18T11:50:49;94261.06;;;5.42;98.58
6038;BME280;3047;42.600;23.470;2022-12-18T11:53:17;94198.03;;;4.99;99.52
6038;BME280;3047;42.600;23.470;2022-12-18T11:55:57;94239.34;;;5.41;99.77
6038;BME280;3047;42.600;23.470;2022-12-18T11:58:42;94270.31;;;5.49;99.03
6038;BME280;3047;42.600;23.470;2022-12-18T12:01:17;94262.78;;;5.44;98.92
6038;BME280;3047;42.600;23.470;2022-12-18T12:04:08;94267.81;;;5.51;99.83
6038;BME280;3047;42.600;23.470;2022-12-18T12:06:45;94228.41;;;5.34;99.69
6038;BME280;3047;42.600;23.470;2022-12-18T12:09:21;94262.94;;;5.61;96.78
6038;BME280;3047;42.600;23.470;2022-12-18T12:12:03;94267.91;;;5.55;99.19
6038;BME280;3047;42.600;23.470;2022-12-18T12:14:45;94245.03;;;5.26;95.75
6038;BME280;3047;42.600;23.470;2022-12-18T12:17:22;94266.88;;;5.38;96.99
6038;BME280;3047;42.600;23.470;2022-12-18T12:19:56;94258.47;;;5.33;95.35
6038;BME280;3047;42.600;23.470;2022-12-18T12:22:33;94262.53;;;5.20;95.21
6038;BME280;3047;42.600;23.470;2022-12-18T12:25:14;94268.44;;;5.28;96.11
6038;BME280;3047;42.600;23.470;2022-12-18T12:27:50;94265.81;;;5.17;96.32
6038;BME280;3047;42.600;23.470;2022-12-18T12:30:27;94261.69;;;5.19;97.94
6038;BME280;3047;42.600;23.470;2022-12-18T12:33:08;94251.63;;;5.15;96.59
6038;BME280;3047;42.600;23.470;2022-12-18T12:35:46;94258.38;;;5.24;96.53
6038;BME280;3047;42.600;23.470;2022-12-18T12:38:17;94256.53;;;5.07;96.99
6038;BME280;3047;42.600;23.470;2022-12-18T12:40:49;94244.56;;;4.83;97.76
6038;BME280;3047;42.600;23.470;2022-12-18T12:43:28;94272.31;;;4.99;97.70
6038;BME280;3047;42.600;23.470;2022-12-18T12:46:02;94263.91;;;4.98;98.49
6038;BME280;3047;42.600;23.470;2022-12-18T12:48:38;94267.28;;;4.99;99.45
6038;BME280;3047;42.600;23.470;2022-12-18T12:51:12;94266.53;;;5.06;98.82
6038;BME280;3047;42.600;23.470;2022-12-18T12:53:40;94268.09;;;4.94;99.46
6038;BME280;3047;42.600;23.470;2022-12-18T12:56:10;94274.72;;;4.92;100.00
6038;BME280;3047;42.600;23.470;2022-12-18T12:58:46;94282.22;;;4.92;100.00
6038;BME280;3047;42.600;23.470;2022-12-18T13:01:23;94255.47;;;4.87;100.00
6038;BME280;3047;42.600;23.470;2022-12-18T13:04:02;94278.34;;;5.16;100.00
6038;BME280;3047;42.600;23.470;2022-12-18T13:06:40;94272.44;;;5.11;100.00
6038;BME280;3047;42.600;23.470;2022-12-18T13:09:08;94289.28;;;5.24;100.00
6038;BME280;3047;42.600;23.470;2022-12-18T13:11:37;94281.66;;;5.15;99.84
6038;BME280;3047;42.600;23.470;2022-12-18T13:14:27;94261.47;;;5.00;99.52
6038;BME280;3047;42.600;23.470;2022-12-18T13:17:29;94285.09;;;5.23;100.00
6038;BME280;3047;42.600;23.470;2022-12-18T13:20:06;94300.88;;;5.17;99.41
6038;BME280;3047;42.600;23.470;2022-12-18T13:22:35;94271.56;;;5.07;100.00
6038;BME280;3047;42.600;23.470;2022-12-18T13:25:27;94291.75;;;5.19;98.95
6038;BME280;3047;42.600;23.470;2022-12-18T13:28:01;94286.69;;;5.18;100.00
6038;BME280;3047;42.600;23.470;2022-12-18T13:30:47;94269.06;;;5.09;100.00